createdAt,value
2022-09-21T00:00:28.301Z,60.45
2022-09-21T00:01:32.328Z,60.35
2022-09-21T00:02:35.434Z,60.80
2022-09-21T00:03:41.421Z,60.18
2022-09-21T00:04:44.534Z,60.35
2022-09-21T00:05:47.555Z,60.21
2022-09-21T00:06:50.517Z,60.08
2022-09-21T00:07:53.543Z,60.16
2022-09-21T00:08:57.392Z,60.33
2022-09-21T00:10:00.267Z,60.20
2022-09-21T00:11:05.689Z,60.15
2022-09-21T00:12:09.471Z,60.57
2022-09-21T00:13:12.611Z,59.85
2022-09-21T00:14:16.224Z,60.16
2022-09-21T00:15:19.788Z,60.61
2022-09-21T00:16:23.861Z,60.05
2022-09-21T00:17:26.852Z,60.16
2022-09-21T00:18:29.799Z,59.90
2022-09-21T00:19:35.523Z,60.14
2022-09-21T00:20:43.625Z,59.58
2022-09-21T00:21:46.459Z,60.04
2022-09-21T00:22:49.404Z,59.91
2022-09-21T00:23:52.345Z,59.99
2022-09-21T00:24:56.241Z,59.54
2022-09-21T00:26:18.284Z,59.49
2022-09-21T00:27:21.427Z,59.49
2022-09-21T00:28:24.426Z,59.57
2022-09-21T00:29:27.533Z,59.82
2022-09-21T00:30:30.543Z,59.45
2022-09-21T00:31:33.991Z,59.23
2022-09-21T00:32:39.376Z,59.59
2022-09-21T00:33:43.798Z,59.37
2022-09-21T00:34:46.685Z,59.71
2022-09-21T00:35:49.670Z,59.03
2022-09-21T00:36:52.548Z,59.31
2022-09-21T00:37:55.458Z,59.52
2022-09-21T00:39:01.738Z,59.20
2022-09-21T00:40:05.622Z,58.99
2022-09-21T00:41:10.977Z,59.40
2022-09-21T00:42:28.957Z,59.22
2022-09-21T00:43:36.187Z,59.28
2022-09-21T00:44:39.175Z,58.90
2022-09-21T00:45:44.795Z,58.83
2022-09-21T00:46:51.768Z,59.07
2022-09-21T00:47:54.760Z,59.25
2022-09-21T00:48:58.636Z,58.71
2022-09-21T00:50:17.585Z,58.94
2022-09-21T00:51:20.881Z,59.04
2022-09-21T00:52:26.809Z,58.30
2022-09-21T00:53:30.176Z,58.78
2022-09-21T00:54:41.831Z,58.57
2022-09-21T00:55:51.101Z,58.45
2022-09-21T00:56:56.579Z,58.70
2022-09-21T00:58:08.416Z,58.52
2022-09-21T00:59:13.596Z,58.64
2022-09-21T01:00:16.435Z,58.29
2022-09-21T01:01:20.430Z,58.52
2022-09-21T01:02:23.464Z,58.89
2022-09-21T01:03:27.007Z,58.90
2022-09-21T01:04:30.444Z,58.58
2022-09-21T01:05:33.430Z,58.72
2022-09-21T01:06:38.862Z,58.58
2022-09-21T01:07:47.491Z,58.72
2022-09-21T01:08:54.266Z,58.54
2022-09-21T01:10:02.489Z,58.46
2022-09-21T01:11:31.354Z,58.51
2022-09-21T01:13:17.768Z,58.45
2022-09-21T01:15:11.939Z,58.21
2022-09-21T01:16:50.855Z,58.15
2022-09-21T01:17:57.111Z,57.67
2022-09-21T01:19:37.099Z,57.94
2022-09-21T01:21:07.608Z,58.52
2022-09-21T01:22:31.854Z,57.82
2022-09-21T01:23:49.820Z,58.28
2022-09-21T01:25:06.152Z,58.17
2022-09-21T01:26:41.990Z,57.86
2022-09-21T01:28:16.244Z,58.67
2022-09-21T01:29:33.184Z,58.85
2022-09-21T01:30:40.671Z,58.22
2022-09-21T01:32:18.038Z,58.58
2022-09-21T01:33:32.383Z,58.34
2022-09-21T01:34:57.738Z,58.08
2022-09-21T01:36:09.846Z,58.39
2022-09-21T01:37:20.130Z,58.01
2022-09-21T01:38:52.555Z,57.88
2022-09-21T01:40:00.955Z,58.41
2022-09-21T01:41:08.299Z,58.10
2022-09-21T01:42:14.246Z,57.86
2022-09-21T01:43:26.961Z,58.15
2022-09-21T01:44:33.375Z,57.47
2022-09-21T01:45:41.445Z,57.64
2022-09-21T01:46:46.997Z,57.61
2022-09-21T01:47:52.584Z,57.84
2022-09-21T01:49:10.750Z,57.72
2022-09-21T01:50:14.819Z,57.73
2022-09-21T01:51:22.613Z,58.26
2022-09-21T01:52:50.425Z,57.96
2022-09-21T01:54:07.827Z,58.00
2022-09-21T01:55:36.099Z,57.79
2022-09-21T01:56:49.372Z,58.19
2022-09-21T01:58:35.962Z,58.00
2022-09-21T01:59:51.247Z,57.79
2022-09-21T02:00:57.467Z,58.03
2022-09-21T02:02:46.332Z,57.78
2022-09-21T02:03:57.713Z,58.05
2022-09-21T02:05:03.399Z,57.94
2022-09-21T02:06:08.155Z,57.94
2022-09-21T02:07:11.552Z,58.29
2022-09-21T02:08:15.380Z,58.47
2022-09-21T02:09:19.437Z,58.03
2022-09-21T02:10:46.129Z,58.30
2022-09-21T02:11:49.044Z,57.89
2022-09-21T02:13:00.018Z,58.32
2022-09-21T02:14:03.426Z,58.12
2022-09-21T02:15:07.097Z,58.14
2022-09-21T02:16:12.824Z,57.99
2022-09-21T02:17:51.251Z,58.25
2022-09-21T02:19:12.442Z,58.31
2022-09-21T02:20:28.254Z,58.61
2022-09-21T02:22:10.232Z,58.51
2022-09-21T02:23:49.359Z,58.54
2022-09-21T02:25:06.469Z,58.21
2022-09-21T02:26:20.397Z,58.28
2022-09-21T02:27:58.911Z,58.42
2022-09-21T02:29:50.506Z,58.19
2022-09-21T02:31:31.080Z,58.70
2022-09-21T02:32:58.717Z,58.23
2022-09-21T02:34:11.737Z,58.14
2022-09-21T02:35:31.380Z,58.63
2022-09-21T02:36:48.276Z,58.51
2022-09-21T02:38:49.862Z,58.74
2022-09-21T02:40:21.924Z,58.30
2022-09-21T02:41:45.905Z,58.39
2022-09-21T02:42:54.396Z,57.94
2022-09-21T02:44:05.193Z,58.30
2022-09-21T02:45:22.340Z,57.99
2022-09-21T02:46:34.698Z,58.43
2022-09-21T02:47:54.496Z,58.65
2022-09-21T02:49:18.323Z,59.08
2022-09-21T02:50:45.644Z,58.76
2022-09-21T02:51:56.818Z,58.64
2022-09-21T02:53:01.458Z,58.63
2022-09-21T02:54:08.169Z,58.76
2022-09-21T02:55:13.510Z,58.40
2022-09-21T02:56:17.084Z,58.23
2022-09-21T02:57:23.848Z,58.31
2022-09-21T02:58:29.533Z,58.10
2022-09-21T02:59:32.871Z,58.36
2022-09-21T03:00:37.158Z,58.11
2022-09-21T03:01:41.261Z,57.99
2022-09-21T03:02:46.398Z,58.18
2022-09-21T03:03:49.522Z,58.00
2022-09-21T03:04:52.633Z,58.09
2022-09-21T03:05:55.992Z,58.28
2022-09-21T03:06:59.346Z,58.07
2022-09-21T03:08:02.449Z,58.28
2022-09-21T03:09:05.330Z,58.24
2022-09-21T03:10:09.329Z,58.48
2022-09-21T03:11:16.102Z,58.33
2022-09-21T03:12:20.557Z,58.54
2022-09-21T03:13:23.743Z,57.98
2022-09-21T03:14:26.761Z,58.52
2022-09-21T03:15:29.802Z,58.88
2022-09-21T03:16:32.622Z,58.68
2022-09-21T03:17:35.677Z,58.57
2022-09-21T03:18:40.312Z,58.48
2022-09-21T03:19:43.252Z,58.17
2022-09-21T03:20:47.061Z,58.29
2022-09-21T03:21:50.049Z,58.73
2022-09-21T03:22:52.880Z,58.57
2022-09-21T03:23:55.835Z,58.38
2022-09-21T03:24:59.827Z,58.16
2022-09-21T03:26:03.158Z,58.48
2022-09-21T03:27:06.128Z,58.06
2022-09-21T03:28:09.514Z,58.05
2022-09-21T03:29:12.410Z,58.32
2022-09-21T03:30:15.342Z,58.28
2022-09-21T03:31:18.555Z,58.51
2022-09-21T03:32:21.567Z,58.50
2022-09-21T03:33:25.479Z,58.59
2022-09-21T03:34:28.464Z,58.75
2022-09-21T03:35:31.792Z,58.86
2022-09-21T03:36:34.633Z,58.74
2022-09-21T03:37:41.157Z,58.62
2022-09-21T03:38:44.699Z,58.11
2022-09-21T03:39:47.585Z,58.38
2022-09-21T03:40:51.363Z,58.45
2022-09-21T03:41:57.923Z,58.13
2022-09-21T03:43:00.968Z,58.11
2022-09-21T03:44:04.113Z,58.17
2022-09-21T03:45:08.965Z,57.91
2022-09-21T03:46:11.844Z,57.42
2022-09-21T03:47:14.793Z,57.97
2022-09-21T03:48:17.961Z,58.05
2022-09-21T03:49:21.354Z,57.76
2022-09-21T03:50:28.938Z,57.82
2022-09-21T03:51:31.967Z,57.84
2022-09-21T03:52:36.429Z,58.04
2022-09-21T03:53:39.347Z,58.36
2022-09-21T03:54:42.411Z,58.46
2022-09-21T03:55:45.550Z,58.35
2022-09-21T03:56:48.672Z,57.71
2022-09-21T03:57:51.984Z,57.91
2022-09-21T03:58:54.992Z,57.94
2022-09-21T03:59:58.045Z,57.84
2022-09-21T04:01:04.288Z,58.12
2022-09-21T04:02:07.211Z,57.86
2022-09-21T04:03:09.951Z,58.14
2022-09-21T04:04:12.798Z,57.75
2022-09-21T04:05:17.192Z,57.96
2022-09-21T04:06:20.661Z,58.10
2022-09-21T04:07:24.065Z,58.34
2022-09-21T04:08:27.018Z,58.43
2022-09-21T04:09:30.369Z,58.18
2022-09-21T04:10:33.422Z,58.05
2022-09-21T04:11:36.434Z,58.31
2022-09-21T04:12:42.923Z,58.46
2022-09-21T04:13:53.306Z,58.12
2022-09-21T04:14:56.272Z,58.11
2022-09-21T04:15:59.417Z,58.56
2022-09-21T04:17:02.714Z,57.95
2022-09-21T04:18:05.962Z,58.58
2022-09-21T04:19:08.801Z,58.74
2022-09-21T04:20:12.408Z,58.44
2022-09-21T04:21:15.454Z,58.13
2022-09-21T04:22:18.837Z,58.23
2022-09-21T04:23:23.139Z,58.52
2022-09-21T04:24:27.289Z,58.11
2022-09-21T04:25:30.557Z,58.54
2022-09-21T04:26:35.365Z,58.21
2022-09-21T04:27:38.662Z,58.13
2022-09-21T04:28:41.568Z,58.63
2022-09-21T04:29:44.975Z,58.38
2022-09-21T04:30:47.960Z,58.05
2022-09-21T04:31:51.106Z,58.46
2022-09-21T04:32:54.136Z,57.84
2022-09-21T04:33:58.908Z,57.75
2022-09-21T04:35:02.087Z,57.58
2022-09-21T04:36:06.438Z,57.67
2022-09-21T04:37:13.093Z,57.57
2022-09-21T04:38:15.979Z,57.68
2022-09-21T04:39:18.861Z,57.72
2022-09-21T04:40:23.395Z,58.18
2022-09-21T04:41:27.304Z,58.02
2022-09-21T04:42:30.730Z,57.76
2022-09-21T04:43:33.843Z,57.25
2022-09-21T04:44:37.390Z,57.80
2022-09-21T04:45:40.678Z,57.67
2022-09-21T04:46:43.652Z,58.11
2022-09-21T04:47:46.621Z,57.80
2022-09-21T04:48:49.998Z,58.11
2022-09-21T04:49:53.716Z,58.17
2022-09-21T04:50:56.741Z,58.03
2022-09-21T04:52:00.036Z,57.59
2022-09-21T04:53:02.998Z,57.71
2022-09-21T04:54:06.726Z,58.01
2022-09-21T04:55:09.705Z,57.69
2022-09-21T04:56:15.555Z,57.60
2022-09-21T04:57:18.472Z,57.58
2022-09-21T04:58:24.492Z,57.70
2022-09-21T04:59:27.867Z,57.72
2022-09-21T05:00:31.275Z,57.29
2022-09-21T05:01:34.581Z,57.51
2022-09-21T05:02:37.705Z,57.18
2022-09-21T05:03:41.020Z,57.20
2022-09-21T05:04:47.512Z,57.10
2022-09-21T05:05:57.664Z,57.11
2022-09-21T05:07:00.603Z,57.36
2022-09-21T05:08:03.531Z,57.02
2022-09-21T05:09:24.934Z,57.00
2022-09-21T05:10:28.185Z,56.66
2022-09-21T05:11:31.450Z,57.09
2022-09-21T05:12:39.687Z,56.84
2022-09-21T05:13:44.025Z,57.06
2022-09-21T05:14:47.028Z,57.03
2022-09-21T05:15:49.905Z,56.55
2022-09-21T05:16:52.682Z,56.60
2022-09-21T05:17:55.738Z,56.76
2022-09-21T05:18:58.808Z,56.73
2022-09-21T05:20:02.061Z,56.56
2022-09-21T05:21:06.470Z,56.21
2022-09-21T05:22:09.535Z,56.32
2022-09-21T05:23:16.656Z,56.85
2022-09-21T05:24:19.836Z,56.37
2022-09-21T05:25:22.717Z,56.44
2022-09-21T05:26:25.816Z,56.21
2022-09-21T05:27:28.847Z,56.09
2022-09-21T05:28:34.578Z,55.39
2022-09-21T05:29:42.066Z,56.11
2022-09-21T05:31:16.220Z,55.83
2022-09-21T05:32:43.857Z,55.42
2022-09-21T05:33:58.574Z,55.57
2022-09-21T05:35:25.110Z,54.96
2022-09-21T05:37:01.015Z,54.96
2022-09-21T05:38:24.571Z,54.75
2022-09-21T05:39:28.127Z,54.79
2022-09-21T05:40:31.786Z,54.56
2022-09-21T05:41:35.515Z,54.69
2022-09-21T05:42:39.006Z,54.96
2022-09-21T05:43:42.677Z,53.82
2022-09-21T05:44:46.013Z,54.26
2022-09-21T05:46:02.363Z,54.56
2022-09-21T05:47:45.554Z,54.35
2022-09-21T05:49:02.985Z,54.15
2022-09-21T05:51:09.089Z,54.12
2022-09-21T05:52:41.195Z,53.87
2022-09-21T05:54:04.630Z,53.91
2022-09-21T05:55:47.091Z,53.60
2022-09-21T05:57:05.771Z,53.62
2022-09-21T05:58:35.667Z,53.39
2022-09-21T06:00:13.386Z,53.12
2022-09-21T06:01:31.085Z,53.22
2022-09-21T06:02:45.268Z,52.42
2022-09-21T06:03:50.187Z,52.19
2022-09-21T06:04:56.637Z,52.06
2022-09-21T06:05:59.714Z,51.41
2022-09-21T06:07:02.937Z,51.59
2022-09-21T06:08:05.720Z,51.28
2022-09-21T06:09:08.595Z,50.78
2022-09-21T06:10:13.969Z,50.70
2022-09-21T06:11:17.120Z,49.06
2022-09-21T06:12:20.054Z,49.38
2022-09-21T06:13:22.970Z,49.80
2022-09-21T06:14:26.577Z,48.99
2022-09-21T06:15:29.510Z,49.74
2022-09-21T06:16:43.457Z,49.11
2022-09-21T06:17:46.586Z,49.09
2022-09-21T06:18:49.467Z,48.79
2022-09-21T06:19:52.379Z,48.70
2022-09-21T06:20:55.360Z,48.61
2022-09-21T06:21:58.367Z,47.99
2022-09-21T06:23:08.470Z,47.84
2022-09-21T06:24:12.029Z,47.08
2022-09-21T06:25:14.966Z,47.07
2022-09-21T06:26:17.912Z,46.65
2022-09-21T06:27:20.927Z,46.32
2022-09-21T06:28:23.798Z,45.63
2022-09-21T06:29:26.660Z,46.43
2022-09-21T06:30:29.674Z,46.09
2022-09-21T06:31:33.432Z,45.89
2022-09-21T06:32:36.602Z,45.84
2022-09-21T06:33:39.466Z,45.52
2022-09-21T06:34:43.007Z,45.70
2022-09-21T06:35:56.673Z,45.77
2022-09-21T06:36:59.577Z,45.30
2022-09-21T06:38:06.217Z,45.18
2022-09-21T06:39:09.139Z,44.94
2022-09-21T06:40:11.990Z,45.13
2022-09-21T06:41:20.129Z,45.34
2022-09-21T06:42:24.171Z,44.69
2022-09-21T06:43:27.370Z,45.05
2022-09-21T06:44:31.031Z,45.33
2022-09-21T06:45:34.230Z,44.88
2022-09-21T06:46:37.493Z,45.38
2022-09-21T06:47:46.547Z,45.29
2022-09-21T06:48:49.305Z,44.75
2022-09-21T06:49:53.879Z,44.97
2022-09-21T06:51:02.086Z,44.90
2022-09-21T06:52:05.189Z,44.53
2022-09-21T06:53:08.055Z,44.78
2022-09-21T06:54:11.473Z,44.28
2022-09-21T06:55:15.006Z,43.64
2022-09-21T06:56:18.163Z,43.52
2022-09-21T06:57:21.154Z,43.11
2022-09-21T06:58:24.025Z,42.81
2022-09-21T06:59:27.107Z,43.28
2022-09-21T07:00:31.298Z,43.24
2022-09-21T07:01:34.269Z,43.55
2022-09-21T07:02:37.396Z,43.48
2022-09-21T07:03:42.113Z,43.95
2022-09-21T07:04:45.145Z,43.58
2022-09-21T07:05:48.003Z,43.51
2022-09-21T07:06:51.318Z,43.83
2022-09-21T07:07:59.228Z,43.42
2022-09-21T07:10:26.644Z,43.81
2022-09-21T07:11:29.784Z,43.63
2022-09-21T07:12:34.671Z,43.61
2022-09-21T07:13:37.708Z,43.37
2022-09-21T07:14:40.849Z,43.16
2022-09-21T07:15:44.591Z,43.61
2022-09-21T07:16:47.518Z,43.51
2022-09-21T07:17:52.260Z,43.05
2022-09-21T07:18:55.406Z,43.17
2022-09-21T07:19:58.760Z,43.50
2022-09-21T07:21:07.190Z,43.12
2022-09-21T07:22:10.010Z,43.30
2022-09-21T07:23:19.366Z,43.83
2022-09-21T07:24:22.377Z,43.94
2022-09-21T07:25:25.724Z,43.58
2022-09-21T07:26:28.981Z,44.37
2022-09-21T07:27:33.894Z,44.77
2022-09-21T07:28:37.290Z,44.54
2022-09-21T07:29:40.141Z,43.72
2022-09-21T07:30:43.290Z,43.10
2022-09-21T07:31:46.673Z,41.47
2022-09-21T07:32:49.528Z,40.19
2022-09-21T07:33:58.596Z,38.55
2022-09-21T07:35:02.539Z,36.36
2022-09-21T07:36:12.971Z,35.12
2022-09-21T07:37:16.367Z,34.12
2022-09-21T07:38:19.792Z,32.08
2022-09-21T07:39:22.591Z,32.44
2022-09-21T07:40:25.966Z,31.52
2022-09-21T07:41:29.224Z,31.64
2022-09-21T07:42:32.258Z,30.70
2022-09-21T07:43:35.417Z,30.40
2022-09-21T07:44:38.331Z,30.69
2022-09-21T07:45:41.848Z,32.13
2022-09-21T07:46:48.279Z,32.70
2022-09-21T07:47:54.295Z,33.06
2022-09-21T07:48:57.868Z,33.11
2022-09-21T07:50:00.921Z,35.15
2022-09-21T07:51:06.999Z,35.38
2022-09-21T07:52:11.242Z,36.28
2022-09-21T07:53:16.385Z,36.92
2022-09-21T07:54:19.211Z,38.12
2022-09-21T07:55:22.167Z,38.45
2022-09-21T07:56:25.782Z,38.00
2022-09-21T07:57:47.266Z,38.55
2022-09-21T07:59:08.583Z,39.01
2022-09-21T08:00:12.397Z,39.26
2022-09-21T08:01:16.163Z,39.51
2022-09-21T08:02:19.258Z,38.85
2022-09-21T08:03:22.295Z,38.77
2022-09-21T08:04:25.220Z,38.69
2022-09-21T08:05:28.300Z,38.44
2022-09-21T08:06:33.617Z,38.62
2022-09-21T08:07:36.708Z,38.07
2022-09-21T08:08:39.593Z,37.93
2022-09-21T08:09:42.545Z,37.21
2022-09-21T08:10:45.487Z,36.97
2022-09-21T08:11:48.376Z,37.26
2022-09-21T08:12:51.269Z,36.23
2022-09-21T08:13:59.572Z,36.28
2022-09-21T08:15:03.261Z,37.03
2022-09-21T08:16:06.732Z,36.51
2022-09-21T08:17:09.772Z,36.56
2022-09-21T08:18:12.716Z,36.43
2022-09-21T08:19:17.274Z,36.84
2022-09-21T08:20:21.947Z,36.46
2022-09-21T08:21:24.888Z,36.78
2022-09-21T08:22:27.774Z,36.93
2022-09-21T08:23:31.191Z,37.15
2022-09-21T08:24:35.209Z,37.53
2022-09-21T08:25:38.151Z,37.41
2022-09-21T08:26:41.110Z,36.51
2022-09-21T08:27:44.092Z,36.67
2022-09-21T08:28:50.100Z,36.07
2022-09-21T08:29:53.071Z,36.45
2022-09-21T08:31:08.396Z,33.67
2022-09-21T08:32:22.859Z,32.30
2022-09-21T08:33:34.897Z,32.49
2022-09-21T08:34:38.039Z,32.84
2022-09-21T08:35:40.922Z,33.25
2022-09-21T08:36:44.112Z,33.47
2022-09-21T08:37:47.043Z,33.70
2022-09-21T08:38:50.892Z,33.96
2022-09-21T08:39:54.010Z,33.26
2022-09-21T08:40:57.127Z,31.91
2022-09-21T08:42:35.153Z,31.68
2022-09-21T08:43:44.031Z,31.58
2022-09-21T08:44:56.984Z,32.16
2022-09-21T08:46:01.252Z,30.33
2022-09-21T08:47:22.797Z,30.15
2022-09-21T08:48:36.940Z,27.92
2022-09-21T08:49:44.910Z,26.41
2022-09-21T08:50:58.027Z,26.57
2022-09-21T08:52:06.159Z,26.56
2022-09-21T08:53:18.436Z,26.12
2022-09-21T08:54:40.646Z,26.78
2022-09-21T08:55:43.674Z,26.43
2022-09-21T08:57:04.509Z,26.59
2022-09-21T08:58:29.822Z,27.17
2022-09-21T08:59:35.304Z,27.57
2022-09-21T09:00:41.159Z,27.45
2022-09-21T09:02:05.241Z,27.85
2022-09-21T09:03:24.493Z,25.87
2022-09-21T09:04:58.090Z,23.34
2022-09-21T09:06:29.933Z,22.93
2022-09-21T09:08:18.116Z,20.73
2022-09-21T09:09:45.500Z,20.14
2022-09-21T09:11:10.219Z,19.60
2022-09-21T09:12:41.529Z,18.17
2022-09-21T09:14:22.053Z,16.65
2022-09-21T09:15:47.048Z,16.56
2022-09-21T09:16:55.322Z,15.47
2022-09-21T09:18:32.152Z,14.42
2022-09-21T09:19:46.243Z,13.59
2022-09-21T09:21:30.431Z,12.87
2022-09-21T09:23:00.093Z,12.63
2022-09-21T09:24:15.459Z,13.94
2022-09-21T09:25:24.856Z,13.75
2022-09-21T09:26:36.282Z,14.42
2022-09-21T09:27:44.407Z,15.53
2022-09-21T09:29:03.301Z,16.34
2022-09-21T09:30:26.281Z,17.09
2022-09-21T09:31:36.167Z,18.56
2022-09-21T09:32:57.211Z,19.62
2022-09-21T09:34:27.684Z,20.99
2022-09-21T09:35:50.634Z,22.12
2022-09-21T09:37:02.318Z,22.93
2022-09-21T09:38:50.671Z,24.05
2022-09-21T09:39:59.661Z,22.26
2022-09-21T09:41:42.225Z,21.42
2022-09-21T09:43:13.172Z,22.07
2022-09-21T09:45:09.441Z,19.88
2022-09-21T09:46:39.883Z,17.58
2022-09-21T09:47:54.524Z,16.73
2022-09-21T09:49:09.968Z,15.14
2022-09-21T09:50:36.546Z,13.76
2022-09-21T09:51:40.551Z,13.02
2022-09-21T09:52:45.280Z,11.98
2022-09-21T09:53:49.116Z,10.98
2022-09-21T09:54:52.174Z,10.33
2022-09-21T09:55:58.453Z,9.92
2022-09-21T09:57:06.107Z,9.30
2022-09-21T09:58:29.227Z,9.02
2022-09-21T09:59:54.239Z,8.60
2022-09-21T10:00:58.960Z,8.80
2022-09-21T10:02:08.626Z,10.18
2022-09-21T10:03:24.647Z,10.74
2022-09-21T10:04:28.214Z,12.39
2022-09-21T10:05:31.107Z,13.61
2022-09-21T10:06:34.459Z,15.21
2022-09-21T10:07:43.685Z,16.58
2022-09-21T10:08:47.338Z,17.94
2022-09-21T10:09:50.257Z,19.89
2022-09-21T10:10:53.289Z,21.18
2022-09-21T10:12:16.995Z,22.10
2022-09-21T10:13:34.759Z,23.83
2022-09-21T10:14:38.031Z,25.28
2022-09-21T10:16:05.711Z,26.33
2022-09-21T10:17:16.351Z,27.36
2022-09-21T10:18:34.938Z,25.97
2022-09-21T10:19:38.266Z,23.68
2022-09-21T10:20:56.325Z,21.53
2022-09-21T10:22:04.838Z,19.79
2022-09-21T10:23:12.691Z,17.93
2022-09-21T10:24:20.688Z,16.35
2022-09-21T10:25:24.542Z,14.54
2022-09-21T10:26:44.358Z,14.34
2022-09-21T10:27:51.644Z,13.65
2022-09-21T10:29:00.857Z,13.19
2022-09-21T10:30:04.814Z,13.64
2022-09-21T10:31:24.106Z,14.41
2022-09-21T10:32:29.815Z,15.15
2022-09-21T10:33:33.416Z,16.13
2022-09-21T10:34:36.510Z,17.00
2022-09-21T10:35:52.336Z,18.05
2022-09-21T10:37:00.796Z,19.31
2022-09-21T10:38:22.418Z,19.40
2022-09-21T10:39:31.345Z,20.58
2022-09-21T10:40:38.599Z,21.21
2022-09-21T10:41:41.688Z,21.52
2022-09-21T10:42:45.476Z,22.93
2022-09-21T10:43:50.892Z,23.54
2022-09-21T10:45:16.415Z,24.29
2022-09-21T10:46:35.636Z,24.37
2022-09-21T10:47:46.630Z,24.03
2022-09-21T10:48:49.768Z,23.44
2022-09-21T10:50:00.659Z,22.79
2022-09-21T10:51:04.377Z,23.32
2022-09-21T10:52:07.483Z,23.54
2022-09-21T10:53:10.139Z,23.25
2022-09-21T10:54:21.643Z,23.58
2022-09-21T10:55:25.505Z,23.94
2022-09-21T10:56:28.457Z,24.10
2022-09-21T10:57:33.093Z,24.05
2022-09-21T10:58:36.619Z,24.47
2022-09-21T10:59:39.822Z,25.27
2022-09-21T11:00:48.222Z,25.53
2022-09-21T11:01:55.115Z,27.11
2022-09-21T11:03:01.426Z,27.72
2022-09-21T11:04:12.215Z,27.85
2022-09-21T11:05:29.979Z,28.20
2022-09-21T11:06:44.165Z,29.03
2022-09-21T11:08:16.548Z,30.49
2022-09-21T11:10:07.290Z,30.58
2022-09-21T11:11:37.934Z,29.91
2022-09-21T11:13:01.228Z,26.49
2022-09-21T11:14:24.913Z,24.88
2022-09-21T11:16:01.343Z,25.19
2022-09-21T11:17:20.255Z,24.15
2022-09-21T11:18:36.898Z,23.62
2022-09-21T11:19:57.747Z,22.96
2022-09-21T11:21:20.160Z,23.73
2022-09-21T11:22:59.560Z,23.67
2022-09-21T11:24:27.526Z,24.74
2022-09-21T11:25:53.763Z,26.30
2022-09-21T11:27:18.299Z,26.26
2022-09-21T11:28:52.677Z,26.79
2022-09-21T11:30:18.726Z,26.53
2022-09-21T11:31:34.570Z,27.17
2022-09-21T11:33:12.193Z,26.32
2022-09-21T11:34:57.684Z,27.79
2022-09-21T11:36:44.481Z,27.79
2022-09-21T11:38:43.106Z,27.23
2022-09-21T11:40:22.146Z,27.96
2022-09-21T11:41:50.071Z,27.73
2022-09-21T11:43:29.629Z,28.46
2022-09-21T11:44:47.076Z,28.07
2022-09-21T11:46:12.977Z,27.57
2022-09-21T11:47:31.633Z,27.21
2022-09-21T11:49:32.314Z,27.37
2022-09-21T11:50:57.652Z,25.83
2022-09-21T11:52:24.213Z,27.25
2022-09-21T11:53:54.252Z,27.35
2022-09-21T11:55:37.211Z,28.78
2022-09-21T11:56:50.122Z,27.94
2022-09-21T11:58:18.830Z,27.92
2022-09-21T11:59:30.174Z,28.81
2022-09-21T12:01:40.010Z,27.87
2022-09-21T12:02:52.163Z,29.48
2022-09-21T12:04:42.090Z,29.22
2022-09-21T12:06:07.698Z,29.07
2022-09-21T12:07:31.872Z,30.01
2022-09-21T12:09:06.311Z,30.53
2022-09-21T12:10:46.017Z,31.07
2022-09-21T12:12:04.435Z,31.90
2022-09-21T12:13:34.423Z,32.61
2022-09-21T12:15:06.302Z,33.08
2022-09-21T12:16:37.828Z,37.61
2022-09-21T12:18:21.506Z,38.56
2022-09-21T12:19:39.839Z,40.84
2022-09-21T12:21:02.162Z,42.37
2022-09-21T12:22:35.527Z,44.38
2022-09-21T12:23:59.654Z,44.67
2022-09-21T12:25:25.617Z,45.36
2022-09-21T12:26:50.404Z,46.27
2022-09-21T12:28:44.510Z,45.90
2022-09-21T12:29:54.238Z,45.74
2022-09-21T12:31:04.977Z,46.45
2022-09-21T12:32:12.131Z,46.34
2022-09-21T12:33:45.361Z,46.75
2022-09-21T12:34:58.509Z,47.31
2022-09-21T12:36:40.936Z,47.66
2022-09-21T12:37:57.357Z,47.72
2022-09-21T12:39:37.416Z,47.57
2022-09-21T12:41:12.329Z,47.64
2022-09-21T12:42:34.172Z,47.54
2022-09-21T12:44:15.427Z,46.92
2022-09-21T12:45:25.923Z,46.19
2022-09-21T12:46:43.845Z,46.12
2022-09-21T12:48:26.284Z,45.63
2022-09-21T12:49:33.218Z,45.42
2022-09-21T12:51:27.197Z,45.24
2022-09-21T12:52:32.465Z,45.18
2022-09-21T12:53:38.821Z,44.71
2022-09-21T12:55:28.980Z,46.03
2022-09-21T12:56:51.614Z,45.83
2022-09-21T12:58:15.510Z,46.02
2022-09-21T12:59:44.101Z,45.30
2022-09-21T13:01:09.275Z,45.45
2022-09-21T13:02:33.373Z,44.79
2022-09-21T13:04:02.050Z,45.55
2022-09-21T13:05:21.106Z,44.55
2022-09-21T13:07:00.461Z,44.43
2022-09-21T13:08:25.395Z,44.39
2022-09-21T13:09:30.079Z,44.38
2022-09-21T13:11:00.976Z,43.50
2022-09-21T13:12:34.947Z,43.08
2022-09-21T13:13:53.440Z,43.21
2022-09-21T13:15:05.167Z,43.38
2022-09-21T13:16:23.382Z,43.86
2022-09-21T13:17:31.976Z,43.71
2022-09-21T13:18:41.795Z,44.10
2022-09-21T13:19:44.696Z,44.27
2022-09-21T13:20:48.541Z,44.11
2022-09-21T13:22:14.759Z,44.27
2022-09-21T13:23:50.824Z,44.89
2022-09-21T13:25:01.396Z,44.53
2022-09-21T13:26:12.119Z,44.59
2022-09-21T13:27:16.127Z,43.28
2022-09-21T13:28:21.624Z,43.01
2022-09-21T13:29:29.801Z,43.37
2022-09-21T13:30:45.737Z,44.08
2022-09-21T13:32:23.430Z,42.51
2022-09-21T13:33:26.423Z,42.79
2022-09-21T13:34:35.353Z,42.36
2022-09-21T13:36:04.825Z,42.06
2022-09-21T13:37:19.470Z,42.48
2022-09-21T13:38:41.684Z,42.34
2022-09-21T13:40:03.281Z,42.62
2022-09-21T13:41:18.254Z,43.04
2022-09-21T13:42:30.078Z,43.27
2022-09-21T13:44:01.153Z,43.12
2022-09-21T13:45:18.746Z,42.81
2022-09-21T13:46:36.786Z,43.28
2022-09-21T13:47:48.089Z,43.08
2022-09-21T13:48:54.335Z,43.37
2022-09-21T13:50:00.616Z,43.54
2022-09-21T13:51:10.133Z,43.65
2022-09-21T13:52:16.783Z,43.77
2022-09-21T13:53:26.866Z,43.82
2022-09-21T13:54:48.729Z,44.07
2022-09-21T13:56:09.997Z,43.83
2022-09-21T13:57:19.041Z,44.11
2022-09-21T13:58:27.910Z,44.27
2022-09-21T13:59:35.171Z,44.69
2022-09-21T14:00:51.690Z,44.54
2022-09-21T14:01:56.168Z,44.33
2022-09-21T14:03:27.797Z,44.88
2022-09-21T14:04:36.915Z,45.37
2022-09-21T14:05:44.703Z,45.74
2022-09-21T14:06:50.562Z,45.69
2022-09-21T14:08:01.986Z,45.25
2022-09-21T14:09:19.157Z,45.53
2022-09-21T14:10:23.484Z,45.54
2022-09-21T14:11:40.957Z,45.51
2022-09-21T14:12:46.916Z,45.28
2022-09-21T14:14:22.913Z,45.03
2022-09-21T14:15:25.773Z,45.49
2022-09-21T14:16:34.442Z,45.51
2022-09-21T14:17:42.305Z,46.57
2022-09-21T14:18:46.963Z,46.35
2022-09-21T14:19:52.810Z,45.13
2022-09-21T14:21:17.154Z,45.30
2022-09-21T14:22:20.508Z,44.90
2022-09-21T14:23:24.096Z,45.17
2022-09-21T14:24:38.789Z,44.42
2022-09-21T14:25:56.686Z,43.68
2022-09-21T14:27:16.270Z,43.63
2022-09-21T14:28:35.160Z,43.31
2022-09-21T14:29:48.343Z,43.08
2022-09-21T14:30:59.329Z,43.07
2022-09-21T14:32:11.875Z,41.78
2022-09-21T14:33:53.663Z,42.17
2022-09-21T14:35:11.067Z,42.49
2022-09-21T14:36:31.144Z,42.31
2022-09-21T14:37:46.490Z,42.70
2022-09-21T14:39:00.591Z,42.99
2022-09-21T14:40:23.699Z,43.09
2022-09-21T14:41:39.083Z,43.64
2022-09-21T14:42:42.102Z,42.38
2022-09-21T14:43:54.486Z,42.78
2022-09-21T14:45:02.201Z,43.32
2022-09-21T14:46:43.761Z,44.00
2022-09-21T14:48:24.403Z,44.22
2022-09-21T14:49:40.695Z,44.57
2022-09-21T14:52:12.922Z,44.44
2022-09-21T14:54:03.022Z,44.13
2022-09-21T14:55:30.333Z,44.32
2022-09-21T14:57:16.486Z,44.45
2022-09-21T14:58:46.926Z,44.29
2022-09-21T15:00:14.891Z,44.78
2022-09-21T15:01:36.000Z,44.60
2022-09-21T15:02:38.983Z,45.27
2022-09-21T15:04:04.956Z,44.98
2022-09-21T15:05:44.068Z,45.65
2022-09-21T15:07:55.674Z,45.91
2022-09-21T15:10:03.614Z,45.48
2022-09-21T15:11:42.027Z,45.93
2022-09-21T15:13:20.258Z,46.39
2022-09-21T15:14:27.634Z,46.24
2022-09-21T15:15:41.359Z,45.37
2022-09-21T15:16:48.817Z,45.61
2022-09-21T15:17:59.766Z,45.46
2022-09-21T15:19:20.379Z,45.76
2022-09-21T15:20:23.626Z,45.38
2022-09-21T15:21:29.324Z,45.62
2022-09-21T15:22:32.823Z,44.91
2022-09-21T15:23:39.821Z,45.38
2022-09-21T15:24:57.044Z,45.82
2022-09-21T15:26:08.979Z,46.53
2022-09-21T15:27:16.828Z,46.43
2022-09-21T15:28:19.718Z,47.24
2022-09-21T15:29:31.396Z,47.54
2022-09-21T15:30:46.765Z,48.32
2022-09-21T15:31:49.682Z,50.24
2022-09-21T15:33:03.027Z,49.98
2022-09-21T15:34:08.280Z,51.05
2022-09-21T15:35:35.750Z,51.73
2022-09-21T15:36:42.068Z,52.26